Time;durP1;ratioP1;P1;durP2;ratioP2;P2;SDS_P1;SDS_P2;PMS_P1;PMS_P2;Temp;Humidity;BMP_temperature;BMP_pressure;BME280_temperature;BME280_humidity;BME280_pressure;Samples;Min_cycle;Max_cycle;Signal;HPM_P1;HPM_P2
2023/08/14 00:02:24;;;;;;;1.63;1.50;;;21.50;99.90;21.70;100690.00;;;;4982059;27;108870;-67
2023/08/14 00:04:50;;;;;;;1.50;1.35;;;21.50;99.90;21.60;100686.00;;;;4981084;27;92936;-67
2023/08/14 00:07:15;;;;;;;1.73;1.35;;;21.50;99.90;21.60;100689.00;;;;4982097;27;120880;-66
2023/08/14 00:09:41;;;;;;;1.88;1.77;;;21.40;99.90;21.50;100689.00;;;;4987929;27;93065;-67
2023/08/14 00:12:07;;;;;;;2.40;1.63;;;21.40;99.90;21.40;100694.00;;;;4982418;27;92822;-67
2023/08/14 00:14:33;;;;;;;2.08;1.80;;;21.30;99.90;21.30;100694.00;;;;4984885;27;121457;-67
2023/08/14 00:16:59;;;;;;;1.65;1.40;;;21.20;99.90;21.20;100697.00;;;;4984009;27;120606;-66
2023/08/14 00:19:25;;;;;;;1.52;1.42;;;21.10;99.90;21.20;100690.00;;;;4987247;28;93117;-67
2023/08/14 00:21:51;;;;;;;1.70;1.45;;;21.00;99.90;21.10;100697.00;;;;4983203;27;108397;-67
2023/08/14 00:24:16;;;;;;;2.53;1.40;;;21.00;99.90;21.00;100694.00;;;;4982566;27;123207;-67
2023/08/14 00:26:42;;;;;;;1.52;1.42;;;20.90;99.90;21.00;100700.00;;;;4983448;27;122628;-66
2023/08/14 00:29:08;;;;;;;2.45;1.30;;;20.90;99.90;20.90;100693.00;;;;4986216;27;95381;-66
2023/08/14 00:31:33;;;;;;;1.38;1.27;;;20.80;99.90;20.80;100700.00;;;;4984982;27;107703;-66
2023/08/14 00:33:59;;;;;;;1.52;1.42;;;20.70;99.90;20.80;100700.00;;;;4984016;28;94627;-66
2023/08/14 00:36:25;;;;;;;1.58;1.48;;;20.70;99.90;20.70;100703.00;;;;4982693;27;124629;-66
2023/08/14 00:38:50;;;;;;;1.85;1.63;;;20.60;99.90;20.60;100702.00;;;;4986982;28;110177;-66
2023/08/14 00:41:16;;;;;;;1.70;1.60;;;20.50;99.90;20.50;100697.00;;;;4984834;28;92887;-66
2023/08/14 00:43:42;;;;;;;2.97;1.65;;;20.50;99.90;20.40;100702.00;;;;4985654;27;122710;-66
2023/08/14 00:46:08;;;;;;;4.07;2.17;;;20.40;99.90;20.30;100696.00;;;;4981787;27;122572;-67
2023/08/14 00:48:34;;;;;;;2.33;1.80;;;20.30;99.90;20.30;100714.00;;;;4985321;27;92703;-66
2023/08/14 00:51:00;;;;;;;1.48;1.38;;;20.20;99.90;20.20;100715.00;;;;4985842;27;108026;-65
2023/08/14 00:53:28;;;;;;;1.90;1.80;;;20.10;99.90;20.10;100725.00;;;;4986176;28;125394;-65
2023/08/14 00:55:55;;;;;;;1.67;1.55;;;20.00;99.90;20.00;100721.00;;;;4983732;27;114387;-66
2023/08/14 00:58:22;;;;;;;2.15;1.90;;;19.90;99.90;20.00;100722.00;;;;4986155;27;92973;-67
2023/08/14 01:00:48;;;;;;;3.00;2.47;;;20.00;99.90;19.90;100715.00;;;;4989228;27;107386;-66
2023/08/14 01:03:13;;;;;;;5.20;1.60;;;19.80;99.90;19.80;100717.00;;;;4983002;27;121276;-66
2023/08/14 01:05:39;;;;;;;3.45;1.50;;;19.80;99.90;19.80;100721.00;;;;4983718;27;121754;-65
2023/08/14 01:08:05;;;;;;;2.05;1.80;;;19.70;99.90;19.80;100721.00;;;;4989495;27;92739;-66
2023/08/14 01:10:49;;;;;;;2.35;1.92;;;19.70;99.90;19.70;100723.00;;;;4981574;27;93718;-66
2023/08/14 01:13:41;;;;;;;1.80;1.67;;;19.60;99.90;19.70;100728.00;;;;4984998;27;100491;-66
2023/08/14 01:16:10;;;;;;;2.25;1.30;;;19.60;99.90;19.70;100717.00;;;;4978117;27;95418;-66
2023/08/14 01:18:39;;;;;;;1.80;1.38;;;19.50;99.90;19.70;100726.00;;;;4980357;27;96248;-66
2023/08/14 01:21:45;;;;;;;3.80;1.95;;;19.50;99.90;19.60;100727.00;;;;4982021;27;92991;-66
2023/08/14 01:24:33;;;;;;;1.73;1.30;;;19.50;99.90;19.50;100725.00;;;;4984186;27;114083;-66
2023/08/14 01:26:59;;;;;;;2.42;1.20;;;19.50;99.90;19.50;100727.00;;;;4985509;27;93845;-66
2023/08/14 01:29:25;;;;;;;2.08;1.85;;;19.40;99.90;19.50;100726.00;;;;4983081;27;110240;-66
2023/08/14 01:31:50;;;;;;;2.00;1.85;;;19.40;99.90;19.50;100725.00;;;;4985431;27;108092;-66
2023/08/14 01:34:16;;;;;;;1.63;1.52;;;19.40;99.90;19.40;100726.00;;;;4985556;27;123717;-66
2023/08/14 01:37:01;;;;;;;4.25;1.52;;;19.30;99.90;19.40;100729.00;;;;4984163;27;121503;-67
2023/08/14 01:39:43;;;;;;;1.95;1.60;;;19.30;99.90;19.30;100733.00;;;;4982634;27;93271;-67
2023/08/14 01:42:18;;;;;;;1.83;1.58;;;19.20;99.90;19.30;100737.00;;;;4982764;27;99570;-66
2023/08/14 01:44:47;;;;;;;2.17;1.73;;;19.20;99.90;19.20;100736.00;;;;4984661;27;103647;-66
2023/08/14 01:47:16;;;;;;;3.35;1.83;;;19.10;99.90;19.20;100731.00;;;;4984418;27;121558;-67
2023/08/14 01:49:43;;;;;;;2.25;1.95;;;19.10;99.90;19.10;100729.00;;;;4990652;27;92896;-66
2023/08/14 01:52:10;;;;;;;1.92;1.77;;;19.00;99.90;19.10;100726.00;;;;4982338;27;92910;-66
2023/08/14 01:54:35;;;;;;;3.40;2.15;;;19.00;99.90;19.00;100730.00;;;;4979673;27;100683;-66
2023/08/14 01:57:01;;;;;;;2.15;1.70;;;19.00;99.90;19.00;100736.00;;;;4979906;27;123577;-66
2023/08/14 01:59:41;;;;;;;2.05;1.83;;;18.90;99.90;18.90;100732.00;;;;4985102;28;94765;-66
2023/08/14 02:02:06;;;;;;;3.40;1.92;;;18.90;99.90;18.90;100737.00;;;;4979331;27;93946;-67
2023/08/14 02:04:32;;;;;;;3.53;2.08;;;18.80;99.90;18.80;100743.00;;;;4983443;27;116159;-67
2023/08/14 02:06:58;;;;;;;2.38;2.17;;;18.80;99.90;18.80;100734.00;;;;4982874;27;116337;-67
2023/08/14 02:09:23;;;;;;;2.35;2.15;;;18.70;99.90;18.70;100723.00;;;;4987922;27;92626;-67
2023/08/14 02:11:49;;;;;;;2.97;2.58;;;18.70;99.90;18.70;100722.00;;;;4983134;27;109420;-67
2023/08/14 02:14:15;;;;;;;3.33;2.33;;;18.60;99.90;18.60;100732.00;;;;4984352;27;122467;-67
2023/08/14 02:16:40;;;;;;;3.80;2.10;;;18.60;99.90;18.60;100741.00;;;;4982484;27;122731;-67
2023/08/14 02:19:06;;;;;;;3.03;2.28;;;18.50;99.90;18.50;100728.00;;;;4981917;27;109319;-66
2023/08/14 02:21:32;;;;;;;2.42;2.22;;;18.50;99.90;18.50;100726.00;;;;4982543;27;97620;-66
2023/08/14 02:23:57;;;;;;;2.22;2.08;;;18.40;99.90;18.50;100720.00;;;;4978884;28;124299;-66
2023/08/14 02:26:23;;;;;;;2.78;2.38;;;18.40;99.90;18.40;100725.00;;;;4980875;27;123188;-66
2023/08/14 02:28:49;;;;;;;3.08;2.35;;;18.30;99.90;18.40;100731.00;;;;4986449;27;110372;-67
2023/08/14 02:31:14;;;;;;;2.55;2.35;;;18.30;99.90;18.40;100737.00;;;;4986856;27;92896;-66
2023/08/14 02:33:40;;;;;;;3.15;2.17;;;18.30;99.90;18.30;100735.00;;;;4986344;27;122245;-66
2023/08/14 02:36:06;;;;;;;3.08;2.30;;;18.20;99.90;18.30;100724.00;;;;4984212;27;122621;-66
2023/08/14 02:38:31;;;;;;;2.13;2.00;;;18.20;99.90;18.20;100733.00;;;;4987571;27;111860;-67
2023/08/14 02:40:57;;;;;;;3.65;2.42;;;18.10;99.90;18.20;100734.00;;;;4984277;27;108763;-66
2023/08/14 02:43:22;;;;;;;2.85;2.22;;;18.10;99.90;18.10;100725.00;;;;4985845;27;102058;-67
2023/08/14 02:45:48;;;;;;;4.25;2.75;;;18.00;99.90;18.10;100737.00;;;;4987897;27;93064;-67
2023/08/14 02:48:14;;;;;;;3.25;2.95;;;18.00;99.90;18.00;100742.00;;;;4986711;27;93092;-67
2023/08/14 02:50:39;;;;;;;2.33;2.13;;;17.90;99.90;18.00;100742.00;;;;4988187;27;95212;-66
2023/08/14 02:53:08;;;;;;;3.30;2.70;;;17.90;99.90;17.90;100744.00;;;;4989887;27;122872;-67
2023/08/14 02:55:33;;;;;;;2.15;1.95;;;17.90;99.90;17.90;100749.00;;;;4985439;27;108916;-67
2023/08/14 02:57:59;;;;;;;2.20;2.00;;;17.80;99.90;17.90;100738.00;;;;4990415;27;108390;-67
2023/08/14 03:00:25;;;;;;;2.85;2.42;;;17.80;99.90;17.80;100742.00;;;;4986032;27;110917;-67
2023/08/14 03:02:50;;;;;;;2.95;2.60;;;17.70;99.90;17.80;100747.00;;;;4988104;27;93660;-66
2023/08/14 03:05:16;;;;;;;2.38;2.15;;;17.70;99.90;17.70;100750.00;;;;4986113;27;121666;-67
2023/08/14 03:07:43;;;;;;;2.38;2.17;;;17.70;99.90;17.70;100743.00;;;;4989374;27;92091;-67
2023/08/14 03:10:09;;;;;;;2.90;2.55;;;17.60;99.90;17.70;100749.00;;;;4988764;27;109132;-67
2023/08/14 03:12:35;;;;;;;2.80;2.60;;;17.60;99.90;17.60;100736.00;;;;4988728;27;114604;-67
2023/08/14 03:15:00;;;;;;;2.92;2.47;;;17.50;99.90;17.60;100734.00;;;;4985510;27;93917;-67
2023/08/14 03:17:26;;;;;;;3.92;2.28;;;17.50;99.90;17.60;100734.00;;;;4986562;27;103204;-66
2023/08/14 03:19:51;;;;;;;2.20;2.00;;;17.50;99.90;17.50;100736.00;;;;4988486;27;109070;-66
2023/08/14 03:22:17;;;;;;;5.38;2.40;;;17.50;99.90;17.50;100746.00;;;;4984172;27;123015;-67
2023/08/14 03:24:43;;;;;;;2.67;2.47;;;17.50;99.90;17.50;100735.00;;;;4987852;27;122439;-67
2023/08/14 03:27:08;;;;;;;4.22;2.65;;;17.50;99.90;17.50;100739.00;;;;4984475;27;110402;-67
2023/08/14 03:29:34;;;;;;;4.22;2.75;;;17.10;99.90;17.40;100748.00;;;;4985768;27;107548;-67
2023/08/14 03:32:00;;;;;;;3.08;2.75;;;17.40;99.90;17.40;100743.00;;;;4987479;27;122621;-67
2023/08/14 03:34:26;;;;;;;2.20;2.10;;;17.30;99.90;17.40;100739.00;;;;4988752;27;121275;-67
2023/08/14 03:36:51;;;;;;;2.90;2.50;;;17.30;99.90;17.40;100743.00;;;;4985421;27;93055;-67
2023/08/14 03:39:17;;;;;;;3.10;2.80;;;17.30;99.90;17.30;100751.00;;;;4985333;27;94056;-67
2023/08/14 03:41:44;;;;;;;3.17;2.65;;;17.30;99.90;17.30;100747.00;;;;4982644;27;124192;-67
2023/08/14 03:44:10;;;;;;;3.40;1.90;;;17.20;99.90;17.30;100751.00;;;;4984886;27;93392;-67
2023/08/14 03:46:35;;;;;;;2.53;2.25;;;17.20;99.90;17.30;100754.00;;;;4986533;27;110584;-66
2023/08/14 03:49:01;;;;;;;2.15;1.98;;;17.20;99.90;17.30;100757.00;;;;4984700;27;112701;-67
2023/08/14 03:51:27;;;;;;;4.13;1.70;;;17.20;99.90;17.20;100760.00;;;;4986489;27;93054;-66
2023/08/14 03:53:52;;;;;;;5.22;2.17;;;17.20;99.90;17.30;100760.00;;;;4984032;27;121292;-68
2023/08/14 03:56:18;;;;;;;2.50;1.98;;;17.10;99.90;17.30;100771.00;;;;4985182;27;108574;-66
2023/08/14 03:58:44;;;;;;;2.33;2.10;;;17.20;99.90;17.30;100752.00;;;;4985014;27;96000;-66
2023/08/14 04:01:09;;;;;;;2.58;2.38;;;17.20;99.90;17.30;100764.00;;;;4984985;27;94816;-66
2023/08/14 04:03:35;;;;;;;4.40;3.22;;;17.20;99.90;17.30;100759.00;;;;4988481;27;94041;-66
2023/08/14 04:06:01;;;;;;;2.95;2.75;;;17.20;99.90;17.30;100754.00;;;;4983223;27;110494;-66
2023/08/14 04:08:26;;;;;;;3.13;2.55;;;17.20;99.90;17.30;100767.00;;;;4985627;27;109289;-67
2023/08/14 04:10:55;;;;;;;3.10;2.00;;;17.20;99.90;17.30;100754.00;;;;4982563;27;120854;-66
2023/08/14 04:13:21;;;;;;;3.35;2.13;;;17.20;99.90;17.30;100754.00;;;;4985081;27;93599;-66
2023/08/14 04:15:50;;;;;;;2.42;2.22;;;17.20;99.90;17.30;100754.00;;;;4982460;27;93103;-65
2023/08/14 04:18:16;;;;;;;2.85;1.77;;;17.20;99.90;17.30;100759.00;;;;4984479;27;110033;-65
2023/08/14 04:20:42;;;;;;;2.95;1.83;;;17.20;99.90;17.30;100754.00;;;;4988426;27;121205;-66
2023/08/14 04:23:08;;;;;;;2.33;2.13;;;17.20;99.90;17.30;100755.00;;;;4984348;27;93230;-66
2023/08/14 04:25:34;;;;;;;4.10;2.10;;;17.20;99.90;17.40;100760.00;;;;4984808;27;109656;-66
2023/08/14 04:27:59;;;;;;;2.15;1.92;;;17.30;99.90;17.40;100758.00;;;;4983262;27;108447;-66
2023/08/14 04:30:25;;;;;;;3.13;2.83;;;17.30;99.90;17.40;100755.00;;;;4989455;27;123619;-66
2023/08/14 04:32:51;;;;;;;3.30;2.75;;;17.30;99.90;17.40;100758.00;;;;4986531;27;122923;-66
2023/08/14 04:35:16;;;;;;;1.73;1.63;;;17.30;99.90;17.50;100754.00;;;;4985771;27;109906;-66
2023/08/14 04:37:42;;;;;;;11.27;2.38;;;17.40;99.90;17.50;100751.00;;;;4983115;27;107129;-67
2023/08/14 04:40:08;;;;;;;3.50;2.88;;;17.40;99.90;17.60;100752.00;;;;4987775;27;122760;-67
2023/08/14 04:42:34;;;;;;;2.38;2.17;;;17.50;99.90;17.70;100748.00;;;;4986943;27;108490;-67
2023/08/14 04:45:01;;;;;;;5.45;2.60;;;17.50;99.90;17.70;100743.00;;;;4988720;27;92290;-67
2023/08/14 04:47:27;;;;;;;2.25;1.65;;;17.60;99.90;17.80;100747.00;;;;4985799;27;93048;-67
2023/08/14 04:49:53;;;;;;;2.00;1.90;;;17.70;99.90;17.80;100752.00;;;;4983845;27;94045;-66
2023/08/14 04:52:20;;;;;;;2.47;2.17;;;17.70;99.90;17.90;100761.00;;;;4986126;27;99161;-66
2023/08/14 04:54:46;;;;;;;2.45;2.25;;;17.80;99.90;18.00;100759.00;;;;4989461;27;92980;-66
2023/08/14 04:57:11;;;;;;;1.92;1.67;;;17.90;99.90;18.10;100754.00;;;;4982733;27;100561;-67
2023/08/14 04:59:46;;;;;;;2.58;1.63;;;17.90;99.90;18.20;100751.00;;;;4986007;27;123559;-67
2023/08/14 05:02:15;;;;;;;1.98;1.80;;;18.00;99.90;18.30;100744.00;;;;4983644;27;122061;-67
2023/08/14 05:04:40;;;;;;;1.30;1.17;;;18.10;99.90;18.40;100743.00;;;;4984956;27;92888;-67
2023/08/14 05:07:06;;;;;;;2.72;2.03;;;18.20;99.90;18.50;100746.00;;;;4986148;27;107841;-67
2023/08/14 05:09:32;;;;;;;2.55;2.35;;;18.40;99.90;18.70;100755.00;;;;4985420;27;108980;-67
2023/08/14 05:11:58;;;;;;;6.63;1.65;;;18.50;99.90;18.90;100758.00;;;;4985014;27;109562;-67
2023/08/14 05:14:24;;;;;;;1.75;1.55;;;18.70;99.90;19.00;100751.00;;;;4987087;28;93128;-68
2023/08/14 05:16:50;;;;;;;1.95;1.75;;;18.80;99.90;19.20;100764.00;;;;4967970;27;94104;-67
2023/08/14 05:19:15;;;;;;;2.60;2.20;;;19.00;99.90;19.40;100766.00;;;;4982529;27;123254;-68
2023/08/14 05:21:41;;;;;;;2.72;1.77;;;19.20;99.90;19.60;100763.00;;;;4983668;27;121490;-67
2023/08/14 05:24:07;;;;;;;1.58;1.40;;;19.40;99.90;19.80;100766.00;;;;4985897;27;93016;-67
2023/08/14 05:26:33;;;;;;;1.73;1.63;;;19.60;99.90;20.00;100760.00;;;;4985756;27;92894;-67
2023/08/14 05:28:58;;;;;;;2.28;1.70;;;19.80;99.90;20.30;100770.00;;;;4984874;27;92917;-67
2023/08/14 05:31:24;;;;;;;4.35;1.85;;;20.00;99.90;20.50;100770.00;;;;4984216;27;95586;-68
2023/08/14 05:33:50;;;;;;;1.58;1.27;;;20.20;99.90;20.70;100770.00;;;;4984468;27;110643;-68
2023/08/14 05:36:15;;;;;;;3.92;1.83;;;20.50;99.90;20.90;100763.00;;;;4977287;27;108580;-68
2023/08/14 05:38:45;;;;;;;1.90;1.33;;;20.70;99.90;21.20;100764.00;;;;4976134;27;123963;-68
2023/08/14 05:41:10;;;;;;;2.63;2.03;;;20.90;99.90;21.40;100762.00;;;;4976657;27;95868;-68
2023/08/14 05:43:36;;;;;;;3.38;2.15;;;21.10;99.90;21.60;100771.00;;;;4978213;27;93047;-68
2023/08/14 05:46:02;;;;;;;1.55;1.45;;;21.30;99.90;21.80;100766.00;;;;4977063;27;107994;-68
2023/08/14 05:48:27;;;;;;;1.42;1.27;;;21.60;99.90;22.00;100774.00;;;;4982134;27;121866;-68
2023/08/14 05:50:53;;;;;;;1.60;1.48;;;21.80;99.90;22.20;100767.00;;;;4976928;27;124896;-68
2023/08/14 05:53:19;;;;;;;1.88;1.33;;;22.00;99.90;22.40;100763.00;;;;4980217;27;109899;-68
2023/08/14 05:55:45;;;;;;;2.10;1.38;;;22.20;99.90;22.60;100761.00;;;;4979130;27;103513;-69
2023/08/14 05:58:22;;;;;;;1.83;1.33;;;22.30;99.90;22.80;100766.00;;;;4979615;27;92387;-68
2023/08/14 06:00:49;;;;;;;1.63;1.52;;;22.50;99.90;23.00;100765.00;;;;4978644;27;121040;-68
2023/08/14 06:03:15;;;;;;;5.88;1.73;;;22.70;99.90;23.10;100768.00;;;;4983448;27;93126;-68
2023/08/14 06:05:41;;;;;;;4.15;1.58;;;22.80;99.90;23.30;100767.00;;;;4975923;27;107847;-69
2023/08/14 06:08:06;;;;;;;1.05;0.95;;;23.00;99.90;23.50;100770.00;;;;4984513;27;95622;-68
2023/08/14 06:10:32;;;;;;;2.15;1.15;;;23.20;99.90;23.70;100763.00;;;;4977217;27;123666;-67
2023/08/14 06:12:58;;;;;;;2.25;1.27;;;23.40;99.90;23.80;100758.00;;;;4978745;27;93102;-68
2023/08/14 06:15:24;;;;;;;1.75;1.65;;;23.60;99.90;24.00;100761.00;;;;4981633;27;96322;-68
2023/08/14 06:17:51;;;;;;;1.35;1.00;;;23.70;99.90;24.20;100760.00;;;;4978742;27;94431;-68
2023/08/14 06:20:16;;;;;;;2.33;1.38;;;23.90;99.90;24.30;100773.00;;;;4980347;27;93206;-68
2023/08/14 06:22:44;;;;;;;1.13;0.98;;;24.00;99.90;24.40;100768.00;;;;4983412;27;92389;-67
2023/08/14 06:25:12;;;;;;;2.70;0.90;;;24.10;99.90;24.60;100764.00;;;;4982842;27;93011;-67
2023/08/14 06:27:38;;;;;;;2.47;0.82;;;24.30;99.90;24.80;100768.00;;;;4983328;27;93607;-67
2023/08/14 06:30:07;;;;;;;1.63;1.20;;;24.50;99.90;24.90;100775.00;;;;4992794;27;111410;-67
2023/08/14 06:32:33;;;;;;;2.42;1.23;;;24.60;99.90;25.00;100760.00;;;;4980542;28;92806;-67
2023/08/14 06:34:58;;;;;;;0.93;0.93;;;24.80;99.90;25.20;100762.00;;;;4979443;27;109034;-67
2023/08/14 06:37:24;;;;;;;1.10;0.90;;;24.90;99.70;25.40;100761.00;;;;4976683;27;122765;-67
2023/08/14 06:39:50;;;;;;;4.40;1.35;;;25.10;99.00;25.60;100762.00;;;;4977134;27;122841;-67
2023/08/14 06:42:15;;;;;;;1.17;0.98;;;25.20;98.20;25.80;100768.00;;;;4977991;27;107835;-67
2023/08/14 06:44:41;;;;;;;0.98;0.70;;;25.40;97.40;26.00;100766.00;;;;4979028;27;108571;-67
2023/08/14 06:47:06;;;;;;;0.68;0.68;;;25.70;97.20;26.20;100769.00;;;;4979040;27;110231;-67
2023/08/14 06:49:32;;;;;;;6.22;1.20;;;25.90;95.20;26.30;100763.00;;;;4979290;27;121264;-67
2023/08/14 06:51:58;;;;;;;1.30;0.80;;;26.00;94.60;26.50;100755.00;;;;4980049;27;108728;-69
2023/08/14 06:54:23;;;;;;;1.02;0.93;;;26.20;93.40;26.60;100750.00;;;;4979629;27;99381;-67
2023/08/14 06:56:49;;;;;;;1.50;0.52;;;26.40;93.30;26.90;100750.00;;;;4979287;27;123354;-67
2023/08/14 06:59:15;;;;;;;3.20;1.80;;;26.50;93.00;27.10;100755.00;;;;4980855;27;92986;-67
2023/08/14 07:01:41;;;;;;;6.88;1.10;;;26.80;93.20;27.40;100760.00;;;;4979151;27;110363;-68
2023/08/14 07:04:07;;;;;;;3.13;0.98;;;27.00;92.20;27.60;100760.00;;;;4980046;27;93125;-66
2023/08/14 07:06:33;;;;;;;1.08;1.02;;;27.20;92.00;27.80;100757.00;;;;4982285;27;123345;-66
2023/08/14 07:08:59;;;;;;;0.70;0.60;;;27.40;91.10;28.10;100751.00;;;;4983419;27;93545;-66
2023/08/14 07:11:25;;;;;;;2.22;0.85;;;27.70;90.40;28.30;100747.00;;;;4978278;27;92568;-67
2023/08/14 07:13:50;;;;;;;1.20;1.10;;;28.00;89.20;28.60;100734.00;;;;4980564;27;107504;-67
2023/08/14 07:16:16;;;;;;;1.52;1.20;;;28.00;87.70;28.90;100735.00;;;;4980382;27;110897;-67
2023/08/14 07:18:42;;;;;;;1.58;0.70;;;28.50;85.70;29.20;100729.00;;;;4983697;27;93747;-67
2023/08/14 07:21:07;;;;;;;0.60;0.60;;;28.80;84.20;29.50;100738.00;;;;4981597;27;111673;-67
2023/08/14 07:23:33;;;;;;;0.52;0.52;;;29.10;83.40;29.90;100742.00;;;;4980285;27;92977;-68
2023/08/14 07:26:11;;;;;;;1.52;0.70;;;29.50;82.40;30.20;100743.00;;;;4983280;27;93938;-68
2023/08/14 07:28:40;;;;;;;1.50;1.30;;;29.80;79.30;30.40;100738.00;;;;4982820;27;93514;-67
2023/08/14 07:31:09;;;;;;;1.20;0.90;;;30.10;77.80;30.60;100742.00;;;;4982046;27;93296;-68
2023/08/14 07:33:35;;;;;;;0.68;0.68;;;30.30;74.50;30.80;100742.00;;;;4980626;27;97768;-67
2023/08/14 07:36:03;;;;;;;1.23;0.65;;;30.50;72.60;31.10;100749.00;;;;4979411;27;92298;-67
2023/08/14 07:38:29;;;;;;;1.17;0.68;;;30.70;70.70;31.30;100745.00;;;;4969854;28;109490;-70
2023/08/14 07:40:55;;;;;;;2.38;0.93;;;30.90;66.50;31.50;100746.00;;;;4984040;27;94427;-70
2023/08/14 07:43:24;;;;;;;0.77;0.60;;;31.10;65.90;31.80;100751.00;;;;4984041;27;94086;-70
2023/08/14 07:45:51;;;;;;;2.97;0.77;;;31.40;64.30;31.90;100747.00;;;;4978315;27;93102;-69
2023/08/14 07:48:16;;;;;;;8.98;0.57;;;31.60;61.20;32.00;100752.00;;;;4979593;27;92953;-70
2023/08/14 07:50:42;;;;;;;0.30;0.30;;;31.60;60.90;32.10;100745.00;;;;4981791;27;94485;-69
2023/08/14 07:53:10;;;;;;;0.40;0.40;;;31.70;60.70;32.30;100751.00;;;;4982782;27;108889;-69
2023/08/14 07:55:36;;;;;;;0.75;0.68;;;31.90;59.30;32.30;100744.00;;;;4980877;27;94066;-71
2023/08/14 07:58:02;;;;;;;1.00;0.57;;;32.10;57.80;32.30;100746.00;;;;4965864;27;113499;-70
2023/08/14 08:00:28;;;;;;;1.63;0.88;;;32.10;57.00;32.40;100742.00;;;;4982161;27;92444;-69
2023/08/14 08:02:53;;;;;;;0.75;0.50;;;32.10;56.30;32.40;100744.00;;;;4983755;27;109698;-70
2023/08/14 08:05:19;;;;;;;1.13;0.70;;;32.10;54.90;32.50;100740.00;;;;4979116;27;124498;-70
2023/08/14 08:07:44;;;;;;;0.82;0.43;;;32.10;55.40;32.60;100735.00;;;;4979858;27;120058;-71
2023/08/14 08:10:10;;;;;;;1.00;0.65;;;32.30;53.70;32.70;100742.00;;;;4984151;27;110524;-71
2023/08/14 08:12:36;;;;;;;0.43;0.43;;;32.30;53.60;32.80;100739.00;;;;4986127;27;109082;-72
2023/08/14 08:15:02;;;;;;;3.45;0.60;;;32.40;52.30;32.80;100731.00;;;;4980682;27;121731;-71
2023/08/14 08:17:27;;;;;;;0.60;0.50;;;32.50;51.70;32.80;100742.00;;;;4981270;27;92998;-72
2023/08/14 08:19:53;;;;;;;0.45;0.40;;;32.50;51.30;32.90;100742.00;;;;4979280;27;110299;-70
2023/08/14 08:22:19;;;;;;;0.38;0.20;;;32.50;51.20;33.00;100740.00;;;;4982297;27;108314;-69
2023/08/14 08:24:44;;;;;;;1.58;0.82;;;32.70;51.00;33.20;100749.00;;;;4982712;27;120550;-69
2023/08/14 08:27:10;;;;;;;1.17;0.77;;;32.80;50.80;33.30;100745.00;;;;4979808;27;122768;-70
2023/08/14 08:29:36;;;;;;;0.82;0.75;;;33.00;49.30;33.30;100747.00;;;;4978247;28;93756;-69
2023/08/14 08:32:01;;;;;;;0.43;0.38;;;33.00;49.70;33.30;100745.00;;;;4980293;27;107963;-71
2023/08/14 08:34:27;;;;;;;1.17;0.70;;;33.00;48.20;33.30;100752.00;;;;4978048;27;120767;-70
2023/08/14 08:36:53;;;;;;;0.10;0.10;;;33.00;47.70;33.20;100747.00;;;;4981706;27;94281;-71
2023/08/14 08:39:18;;;;;;;1.60;0.80;;;33.00;46.80;33.10;100755.00;;;;4977567;27;110186;-71
2023/08/14 08:41:46;;;;;;;1.00;0.52;;;32.90;46.10;32.90;100753.00;;;;4984093;27;106118;-70
2023/08/14 08:44:23;;;;;;;0.30;0.30;;;32.70;46.00;32.90;100763.00;;;;4978158;27;93631;-70
2023/08/14 08:47:01;;;;;;;0.95;0.73;;;32.60;46.00;32.90;100762.00;;;;4983126;27;93213;-71
2023/08/14 08:49:28;;;;;;;0.40;0.40;;;32.50;46.40;32.90;100763.00;;;;4980788;27;102234;-69
2023/08/14 08:51:54;;;;;;;0.60;0.50;;;32.60;46.90;32.90;100760.00;;;;4976883;27;95414;-71
2023/08/14 08:54:20;;;;;;;0.68;0.57;;;32.60;45.90;33.00;100769.00;;;;4980839;27;123153;-69
2023/08/14 08:56:46;;;;;;;0.65;0.30;;;32.50;46.00;33.00;100763.00;;;;4979615;27;113693;-70
2023/08/14 08:59:14;;;;;;;0.82;0.80;;;32.60;46.00;32.90;100760.00;;;;4979287;28;92854;-70
2023/08/14 09:01:46;;;;;;;0.55;0.45;;;32.60;45.90;32.90;100744.00;;;;4978691;27;100500;-70
2023/08/14 09:04:12;;;;;;;0.68;0.50;;;32.50;46.30;32.80;100745.00;;;;4979250;27;93216;-71
2023/08/14 09:06:37;;;;;;;1.25;0.75;;;32.50;46.70;32.90;100741.00;;;;4982368;27;93017;-70
2023/08/14 09:09:03;;;;;;;0.80;0.57;;;32.50;47.10;33.10;100740.00;;;;4983084;27;93126;-71
2023/08/14 09:11:29;;;;;;;0.75;0.75;;;32.60;47.20;33.10;100746.00;;;;4975203;28;108819;-69
2023/08/14 09:13:55;;;;;;;0.55;0.43;;;32.60;46.80;33.00;100738.00;;;;4975805;27;122912;-70
2023/08/14 09:16:21;;;;;;;0.43;0.35;;;32.60;46.20;32.90;100740.00;;;;4977901;27;120843;-71
2023/08/14 09:18:47;;;;;;;0.20;0.20;;;32.50;46.70;33.10;100740.00;;;;4982081;27;93309;-70
2023/08/14 09:21:13;;;;;;;1.05;0.77;;;32.60;47.20;33.30;100744.00;;;;4976894;27;108192;-70
2023/08/14 09:23:40;;;;;;;0.93;0.70;;;32.70;46.30;33.30;100740.00;;;;4980880;27;108060;-70
2023/08/14 09:26:06;;;;;;;0.77;0.68;;;32.80;46.40;33.20;100748.00;;;;4982898;27;112043;-69
2023/08/14 09:28:33;;;;;;;0.32;0.32;;;32.80;47.20;33.10;100751.00;;;;4984478;27;92897;-71
2023/08/14 09:31:09;;;;;;;1.05;0.80;;;32.70;47.90;33.20;100744.00;;;;4979997;27;93029;-69
2023/08/14 09:33:41;;;;;;;0.80;0.68;;;32.70;48.20;33.30;100750.00;;;;4980384;27;93001;-71
2023/08/14 09:36:07;;;;;;;0.63;0.50;;;32.80;48.40;33.50;100740.00;;;;4979402;27;93077;-69
2023/08/14 09:38:34;;;;;;;1.15;0.70;;;32.90;48.00;33.60;100743.00;;;;4975868;27;91929;-70
2023/08/14 09:41:01;;;;;;;1.08;0.80;;;33.00;48.10;33.80;100731.00;;;;4980693;27;93394;-71
2023/08/14 09:43:29;;;;;;;1.17;0.93;;;33.20;48.50;33.90;100736.00;;;;4980911;27;93157;-69
2023/08/14 09:46:02;;;;;;;0.50;0.50;;;33.30;48.00;33.90;100735.00;;;;4979580;27;93812;-70
2023/08/14 09:48:45;;;;;;;1.63;0.85;;;33.40;48.10;33.80;100739.00;;;;4982059;27;93070;-69
2023/08/14 09:51:16;;;;;;;1.80;0.60;;;33.40;48.80;33.80;100740.00;;;;4988818;27;92818;-70
2023/08/14 09:53:54;;;;;;;1.30;0.88;;;33.40;48.90;33.70;100742.00;;;;4979287;27;108930;-69
2023/08/14 09:56:20;;;;;;;1.02;0.63;;;33.30;48.90;33.70;100753.00;;;;4983638;27;93787;-69
2023/08/14 09:58:50;;;;;;;0.82;0.70;;;33.20;49.00;33.70;100737.00;;;;4979511;27;93455;-70
2023/08/14 10:01:18;;;;;;;1.08;0.70;;;33.30;49.20;33.80;100732.00;;;;4977415;28;93782;-69
2023/08/14 10:03:49;;;;;;;3.58;1.08;;;33.20;49.00;34.00;100742.00;;;;4983313;27;92528;-69
2023/08/14 10:06:15;;;;;;;0.93;0.52;;;33.30;49.20;34.10;100738.00;;;;4978000;27;93116;-70
2023/08/14 10:08:44;;;;;;;0.82;0.47;;;33.50;48.60;34.30;100735.00;;;;4977941;27;94201;-70
2023/08/14 10:11:15;;;;;;;1.15;0.95;;;33.80;49.20;34.60;100738.00;;;;4984150;27;94003;-69
2023/08/14 10:13:55;;;;;;;1.77;1.13;;;33.80;48.30;34.90;100725.00;;;;4977710;27;112172;-71
2023/08/14 10:16:31;;;;;;;6.78;1.02;;;34.10;48.10;35.10;100736.00;;;;4978250;27;106824;-70
2023/08/14 10:18:57;;;;;;;1.73;0.70;;;34.30;48.00;35.00;100732.00;;;;4981623;27;93112;-69
2023/08/14 10:21:32;;;;;;;1.08;0.88;;;34.40;47.60;35.20;100714.00;;;;4985349;27;93352;-69
2023/08/14 10:24:02;;;;;;;0.73;0.60;;;34.40;48.30;35.70;100723.00;;;;4979476;27;92967;-68
2023/08/14 10:26:28;;;;;;;1.15;0.80;;;34.80;48.70;36.20;100728.00;;;;4981780;27;94810;-69
2023/08/14 10:28:59;;;;;;;3.00;1.10;;;35.30;48.20;36.30;100727.00;;;;4981955;27;92079;-70
2023/08/14 10:31:28;;;;;;;3.55;0.90;;;35.50;46.30;36.20;100720.00;;;;4978777;27;92985;-70
2023/08/14 10:33:56;;;;;;;0.77;0.70;;;35.50;46.70;36.10;100717.00;;;;4981366;27;94384;-71
2023/08/14 10:36:22;;;;;;;0.40;0.40;;;35.50;47.00;36.00;100724.00;;;;4981144;27;109905;-69
2023/08/14 10:38:50;;;;;;;1.15;0.85;;;35.40;47.20;35.90;100723.00;;;;4980514;27;93050;-70
2023/08/14 10:41:17;;;;;;;0.50;0.35;;;35.30;47.60;36.00;100723.00;;;;4980953;27;92896;-69
2023/08/14 10:43:52;;;;;;;2.03;0.75;;;35.30;47.40;36.00;100724.00;;;;4980966;27;93357;-70